sensor_id;sensor_type;location;lat;lon;timestamp;temperature;humidity
20560;DHT22;10438;51.454;6.718;2022-12-18T00:01:48;-3.30;99.90
20560;DHT22;10438;51.454;6.718;2022-12-18T00:04:24;-3.40;99.90
20560;DHT22;10438;51.454;6.718;2022-12-18T00:06:50;-3.40;99.90
20560;DHT22;10438;51.454;6.718;2022-12-18T00:09:17;-3.40;99.90
20560;DHT22;10438;51.454;6.718;2022-12-18T00:11:42;-3.40;99.90
20560;DHT22;10438;51.454;6.718;2022-12-18T00:14:09;-3.40;99.90
20560;DHT22;10438;51.454;6.718;2022-12-18T00:16:36;-3.40;99.90
20560;DHT22;10438;51.454;6.718;2022-12-18T00:19:02;-3.40;99.90
20560;DHT22;10438;51.454;6.718;2022-12-18T00:21:29;-3.40;99.90
20560;DHT22;10438;51.454;6.718;2022-12-18T00:23:55;-3.50;99.90
20560;DHT22;10438;51.454;6.718;2022-12-18T00:26:24;-3.50;99.90
20560;DHT22;10438;51.454;6.718;2022-12-18T00:28:50;-3.50;99.90
20560;DHT22;10438;51.454;6.718;2022-12-18T00:31:20;-3.40;99.90
20560;DHT22;10438;51.454;6.718;2022-12-18T00:33:46;-3.50;99.90
20560;DHT22;10438;51.454;6.718;2022-12-18T00:36:15;-3.40;99.90
20560;DHT22;10438;51.454;6.718;2022-12-18T00:38:41;-3.40;99.90
20560;DHT22;10438;51.454;6.718;2022-12-18T00:41:07;-3.30;99.90
20560;DHT22;10438;51.454;6.718;2022-12-18T00:43:33;-3.30;99.90
20560;DHT22;10438;51.454;6.718;2022-12-18T00:45:59;-3.30;99.90
20560;DHT22;10438;51.454;6.718;2022-12-18T00:48:24;-3.20;99.90
20560;DHT22;10438;51.454;6.718;2022-12-18T00:50:50;-3.20;99.90
20560;DHT22;10438;51.454;6.718;2022-12-18T00:53:16;-3.20;99.90
20560;DHT22;10438;51.454;6.718;2022-12-18T00:55:42;-3.20;99.90
20560;DHT22;10438;51.454;6.718;2022-12-18T00:58:09;-3.30;99.90
20560;DHT22;10438;51.454;6.718;2022-12-18T01:00:35;-3.30;99.90
20560;DHT22;10438;51.454;6.718;2022-12-18T01:03:00;-3.40;99.90
20560;DHT22;10438;51.454;6.718;2022-12-18T01:05:26;-3.40;99.90
20560;DHT22;10438;51.454;6.718;2022-12-18T01:07:52;-3.40;99.90
20560;DHT22;10438;51.454;6.718;2022-12-18T01:10:18;-3.50;99.90
20560;DHT22;10438;51.454;6.718;2022-12-18T01:12:43;-3.50;99.90
20560;DHT22;10438;51.454;6.718;2022-12-18T01:15:10;-3.60;99.90
20560;DHT22;10438;51.454;6.718;2022-12-18T01:17:36;-3.60;99.90
20560;DHT22;10438;51.454;6.718;2022-12-18T01:20:02;-3.60;99.90
20560;DHT22;10438;51.454;6.718;2022-12-18T01:22:28;-3.60;99.90
20560;DHT22;10438;51.454;6.718;2022-12-18T01:24:54;-3.50;99.90
20560;DHT22;10438;51.454;6.718;2022-12-18T01:27:19;-3.40;99.90
20560;DHT22;10438;51.454;6.718;2022-12-18T01:29:45;-3.40;99.90
20560;DHT22;10438;51.454;6.718;2022-12-18T01:32:10;-3.40;99.90
20560;DHT22;10438;51.454;6.718;2022-12-18T01:34:37;-3.30;99.90
20560;DHT22;10438;51.454;6.718;2022-12-18T01:37:05;-3.30;99.90
20560;DHT22;10438;51.454;6.718;2022-12-18T01:39:31;-3.30;99.90
20560;DHT22;10438;51.454;6.718;2022-12-18T01:41:58;-3.20;99.90
20560;DHT22;10438;51.454;6.718;2022-12-18T01:44:57;-3.20;99.90
20560;DHT22;10438;51.454;6.718;2022-12-18T01:47:46;-3.20;99.90
20560;DHT22;10438;51.454;6.718;2022-12-18T01:50:19;-3.20;99.90
20560;DHT22;10438;51.454;6.718;2022-12-18T01:52:52;-3.20;99.90
20560;DHT22;10438;51.454;6.718;2022-12-18T01:55:22;-3.20;99.90
20560;DHT22;10438;51.454;6.718;2022-12-18T01:57:52;-3.20;99.90
20560;DHT22;10438;51.454;6.718;2022-12-18T02:00:19;-3.20;99.90
20560;DHT22;10438;51.454;6.718;2022-12-18T02:02:46;-3.10;99.90
20560;DHT22;10438;51.454;6.718;2022-12-18T02:05:18;-3.10;99.90
20560;DHT22;10438;51.454;6.718;2022-12-18T02:08:06;-3.10;99.90
20560;DHT22;10438;51.454;6.718;2022-12-18T02:16:21;-3.00;99.90
20560;DHT22;10438;51.454;6.718;2022-12-18T02:18:52;-3.00;99.90
20560;DHT22;10438;51.454;6.718;2022-12-18T02:21:31;-2.90;99.90
20560;DHT22;10438;51.454;6.718;2022-12-18T02:26:54;-2.90;99.90
20560;DHT22;10438;51.454;6.718;2022-12-18T02:29:24;-2.80;99.90
20560;DHT22;10438;51.454;6.718;2022-12-18T02:31:55;-2.80;99.90
20560;DHT22;10438;51.454;6.718;2022-12-18T02:34:24;-2.80;99.90
20560;DHT22;10438;51.454;6.718;2022-12-18T02:36:53;-2.70;99.90
20560;DHT22;10438;51.454;6.718;2022-12-18T02:39:20;-2.70;99.90
20560;DHT22;10438;51.454;6.718;2022-12-18T02:41:47;-2.70;99.90
20560;DHT22;10438;51.454;6.718;2022-12-18T02:44:14;-2.70;99.90
20560;DHT22;10438;51.454;6.718;2022-12-18T02:46:45;-2.70;99.90
20560;DHT22;10438;51.454;6.718;2022-12-18T02:49:22;-2.70;99.90
20560;DHT22;10438;51.454;6.718;2022-12-18T02:52:08;-2.70;99.90
20560;DHT22;10438;51.454;6.718;2022-12-18T02:57:24;-2.70;99.90
20560;DHT22;10438;51.454;6.718;2022-12-18T03:00:06;-2.70;99.90
20560;DHT22;10438;51.454;6.718;2022-12-18T03:02:53;-2.70;99.90
20560;DHT22;10438;51.454;6.718;2022-12-18T03:05:27;-2.80;99.90
20560;DHT22;10438;51.454;6.718;2022-12-18T03:07:59;-2.70;99.90
20560;DHT22;10438;51.454;6.718;2022-12-18T03:10:32;-2.70;99.90
20560;DHT22;10438;51.454;6.718;2022-12-18T03:13:05;-2.70;99.90
20560;DHT22;10438;51.454;6.718;2022-12-18T03:15:38;-2.70;99.90
20560;DHT22;10438;51.454;6.718;2022-12-18T03:18:08;-2.70;99.90
20560;DHT22;10438;51.454;6.718;2022-12-18T03:20:37;-2.70;99.90
20560;DHT22;10438;51.454;6.718;2022-12-18T03:23:10;-2.70;99.90
20560;DHT22;10438;51.454;6.718;2022-12-18T03:25:40;-2.60;99.90
20560;DHT22;10438;51.454;6.718;2022-12-18T03:28:10;-2.60;99.90
20560;DHT22;10438;51.454;6.718;2022-12-18T03:30:38;-2.60;99.90
20560;DHT22;10438;51.454;6.718;2022-12-18T03:33:18;-2.50;99.90
20560;DHT22;10438;51.454;6.718;2022-12-18T03:35:46;-2.50;99.90
20560;DHT22;10438;51.454;6.718;2022-12-18T03:38:13;-2.40;99.90
20560;DHT22;10438;51.454;6.718;2022-12-18T03:41:06;-2.40;99.90
20560;DHT22;10438;51.454;6.718;2022-12-18T03:44:05;-2.40;99.90
20560;DHT22;10438;51.454;6.718;2022-12-18T03:46:50;-2.40;99.90
20560;DHT22;10438;51.454;6.718;2022-12-18T03:49:47;-2.40;99.90
20560;DHT22;10438;51.454;6.718;2022-12-18T03:52:53;-2.40;99.90
20560;DHT22;10438;51.454;6.718;2022-12-18T03:55:23;-2.30;99.90
20560;DHT22;10438;51.454;6.718;2022-12-18T03:57:51;-2.20;99.90
20560;DHT22;10438;51.454;6.718;2022-12-18T04:00:18;-2.10;99.90
20560;DHT22;10438;51.454;6.718;2022-12-18T04:02:55;-2.10;99.90
20560;DHT22;10438;51.454;6.718;2022-12-18T04:05:22;-2.10;99.90
20560;DHT22;10438;51.454;6.718;2022-12-18T04:07:51;-2.00;99.90
20560;DHT22;10438;51.454;6.718;2022-12-18T04:10:17;-2.00;99.90
20560;DHT22;10438;51.454;6.718;2022-12-18T04:12:43;-2.00;99.90
20560;DHT22;10438;51.454;6.718;2022-12-18T04:15:10;-1.90;99.90
20560;DHT22;10438;51.454;6.718;2022-12-18T04:17:36;-1.90;99.90
20560;DHT22;10438;51.454;6.718;2022-12-18T04:20:01;-1.90;99.90
20560;DHT22;10438;51.454;6.718;2022-12-18T04:22:27;-1.90;99.90
20560;DHT22;10438;51.454;6.718;2022-12-18T04:24:53;-1.90;99.90
20560;DHT22;10438;51.454;6.718;2022-12-18T04:27:18;-1.90;99.90
20560;DHT22;10438;51.454;6.718;2022-12-18T04:29:44;-1.90;99.90
20560;DHT22;10438;51.454;6.718;2022-12-18T04:32:09;-1.90;99.90
20560;DHT22;10438;51.454;6.718;2022-12-18T04:34:35;-2.00;99.90
20560;DHT22;10438;51.454;6.718;2022-12-18T04:37:00;-2.00;99.90
20560;DHT22;10438;51.454;6.718;2022-12-18T04:39:26;-2.00;99.90
20560;DHT22;10438;51.454;6.718;2022-12-18T04:41:51;-2.00;99.90
20560;DHT22;10438;51.454;6.718;2022-12-18T04:44:17;-2.00;99.90
20560;DHT22;10438;51.454;6.718;2022-12-18T04:46:43;-2.00;99.90
20560;DHT22;10438;51.454;6.718;2022-12-18T04:49:09;-2.00;99.90
20560;DHT22;10438;51.454;6.718;2022-12-18T04:51:36;-2.10;99.90
20560;DHT22;10438;51.454;6.718;2022-12-18T04:54:02;-2.10;99.90
20560;DHT22;10438;51.454;6.718;2022-12-18T04:56:27;-2.10;99.90
20560;DHT22;10438;51.454;6.718;2022-12-18T04:58:53;-2.00;99.90
20560;DHT22;10438;51.454;6.718;2022-12-18T05:01:18;-2.10;99.90
20560;DHT22;10438;51.454;6.718;2022-12-18T05:03:44;-2.20;99.90
20560;DHT22;10438;51.454;6.718;2022-12-18T05:06:10;-2.20;99.90
20560;DHT22;10438;51.454;6.718;2022-12-18T05:08:35;-2.20;99.90
20560;DHT22;10438;51.454;6.718;2022-12-18T05:11:06;-2.30;99.90
20560;DHT22;10438;51.454;6.718;2022-12-18T05:13:33;-2.40;99.90
20560;DHT22;10438;51.454;6.718;2022-12-18T05:15:58;-2.40;99.90
20560;DHT22;10438;51.454;6.718;2022-12-18T05:18:24;-2.50;99.90
20560;DHT22;10438;51.454;6.718;2022-12-18T05:20:51;-2.50;99.90
20560;DHT22;10438;51.454;6.718;2022-12-18T05:23:18;-2.60;99.90
20560;DHT22;10438;51.454;6.718;2022-12-18T05:25:59;-2.60;99.90
20560;DHT22;10438;51.454;6.718;2022-12-18T05:28:26;-2.70;99.90
20560;DHT22;10438;51.454;6.718;2022-12-18T05:30:55;-2.70;99.90
20560;DHT22;10438;51.454;6.718;2022-12-18T05:33:22;-2.80;99.90
20560;DHT22;10438;51.454;6.718;2022-12-18T05:35:58;-2.80;99.90
20560;DHT22;10438;51.454;6.718;2022-12-18T05:38:25;-2.90;99.90
20560;DHT22;10438;51.454;6.718;2022-12-18T05:40:52;-2.90;99.90
20560;DHT22;10438;51.454;6.718;2022-12-18T05:43:19;-2.90;99.90
20560;DHT22;10438;51.454;6.718;2022-12-18T05:45:45;-2.90;99.90
20560;DHT22;10438;51.454;6.718;2022-12-18T05:48:11;-2.90;99.90
20560;DHT22;10438;51.454;6.718;2022-12-18T05:50:37;-2.90;99.90
20560;DHT22;10438;51.454;6.718;2022-12-18T05:53:04;-3.00;99.90
20560;DHT22;10438;51.454;6.718;2022-12-18T05:55:33;-3.00;99.90
20560;DHT22;10438;51.454;6.718;2022-12-18T05:57:58;-2.90;99.90
20560;DHT22;10438;51.454;6.718;2022-12-18T06:00:25;-2.90;99.90
20560;DHT22;10438;51.454;6.718;2022-12-18T06:02:51;-2.80;99.90
20560;DHT22;10438;51.454;6.718;2022-12-18T06:05:16;-2.70;99.90
20560;DHT22;10438;51.454;6.718;2022-12-18T06:07:42;-2.70;99.90
20560;DHT22;10438;51.454;6.718;2022-12-18T06:10:07;-2.60;99.90
20560;DHT22;10438;51.454;6.718;2022-12-18T06:12:33;-2.60;99.90
20560;DHT22;10438;51.454;6.718;2022-12-18T06:14:59;-2.60;99.90
20560;DHT22;10438;51.454;6.718;2022-12-18T06:17:29;-2.60;99.90
20560;DHT22;10438;51.454;6.718;2022-12-18T06:19:55;-2.60;99.90
20560;DHT22;10438;51.454;6.718;2022-12-18T06:22:21;-2.60;99.90
20560;DHT22;10438;51.454;6.718;2022-12-18T06:24:46;-2.60;99.90
20560;DHT22;10438;51.454;6.718;2022-12-18T06:27:12;-2.60;99.90
20560;DHT22;10438;51.454;6.718;2022-12-18T06:29:37;-2.60;99.90
20560;DHT22;10438;51.454;6.718;2022-12-18T06:32:03;-2.60;99.90
20560;DHT22;10438;51.454;6.718;2022-12-18T06:34:30;-2.60;99.90
20560;DHT22;10438;51.454;6.718;2022-12-18T06:36:56;-2.60;99.90
20560;DHT22;10438;51.454;6.718;2022-12-18T06:39:21;-2.60;99.90
20560;DHT22;10438;51.454;6.718;2022-12-18T06:41:47;-2.60;99.90
20560;DHT22;10438;51.454;6.718;2022-12-18T06:44:12;-2.60;99.90
20560;DHT22;10438;51.454;6.718;2022-12-18T06:46:38;-2.60;99.90
20560;DHT22;10438;51.454;6.718;2022-12-18T06:49:03;-2.60;99.90
20560;DHT22;10438;51.454;6.718;2022-12-18T06:51:29;-2.70;99.90
20560;DHT22;10438;51.454;6.718;2022-12-18T06:53:55;-2.80;99.90
20560;DHT22;10438;51.454;6.718;2022-12-18T06:56:20;-2.80;99.90
20560;DHT22;10438;51.454;6.718;2022-12-18T06:58:46;-2.90;99.90
20560;DHT22;10438;51.454;6.718;2022-12-18T07:01:12;-2.90;99.90
20560;DHT22;10438;51.454;6.718;2022-12-18T07:03:39;-3.00;99.90
20560;DHT22;10438;51.454;6.718;2022-12-18T07:06:05;-3.00;99.90
20560;DHT22;10438;51.454;6.718;2022-12-18T07:08:31;-3.10;99.90
20560;DHT22;10438;51.454;6.718;2022-12-18T07:10:57;-3.10;99.90
20560;DHT22;10438;51.454;6.718;2022-12-18T07:13:23;-3.20;99.90
20560;DHT22;10438;51.454;6.718;2022-12-18T07:15:48;-3.20;99.90
20560;DHT22;10438;51.454;6.718;2022-12-18T07:18:14;-3.30;99.90
20560;DHT22;10438;51.454;6.718;2022-12-18T07:20:42;-3.40;99.90
20560;DHT22;10438;51.454;6.718;2022-12-18T07:23:08;-3.40;99.90
20560;DHT22;10438;51.454;6.718;2022-12-18T07:25:35;-3.40;99.90
20560;DHT22;10438;51.454;6.718;2022-12-18T07:28:01;-3.40;99.90
20560;DHT22;10438;51.454;6.718;2022-12-18T07:30:26;-3.50;99.90
20560;DHT22;10438;51.454;6.718;2022-12-18T07:32:52;-3.50;99.90
20560;DHT22;10438;51.454;6.718;2022-12-18T07:35:17;-3.50;99.90
20560;DHT22;10438;51.454;6.718;2022-12-18T07:37:44;-3.50;99.90
20560;DHT22;10438;51.454;6.718;2022-12-18T07:40:10;-3.50;99.90
20560;DHT22;10438;51.454;6.718;2022-12-18T07:42:35;-3.60;99.90
20560;DHT22;10438;51.454;6.718;2022-12-18T07:45:02;-3.60;99.90
20560;DHT22;10438;51.454;6.718;2022-12-18T07:47:28;-3.50;99.90
20560;DHT22;10438;51.454;6.718;2022-12-18T07:49:54;-3.40;99.90
20560;DHT22;10438;51.454;6.718;2022-12-18T07:52:20;-3.30;99.90
20560;DHT22;10438;51.454;6.718;2022-12-18T07:54:46;-3.20;99.90
20560;DHT22;10438;51.454;6.718;2022-12-18T07:57:16;-3.10;99.90
20560;DHT22;10438;51.454;6.718;2022-12-18T07:59:42;-3.00;99.90
20560;DHT22;10438;51.454;6.718;2022-12-18T08:02:07;-2.90;99.90
20560;DHT22;10438;51.454;6.718;2022-12-18T08:04:33;-2.80;99.90
20560;DHT22;10438;51.454;6.718;2022-12-18T08:07:00;-2.70;99.90
20560;DHT22;10438;51.454;6.718;2022-12-18T08:09:25;-2.70;99.90
20560;DHT22;10438;51.454;6.718;2022-12-18T08:11:51;-2.60;99.90
20560;DHT22;10438;51.454;6.718;2022-12-18T08:14:16;-2.50;99.90
20560;DHT22;10438;51.454;6.718;2022-12-18T08:16:42;-2.40;99.90
20560;DHT22;10438;51.454;6.718;2022-12-18T08:19:10;-2.40;99.90
20560;DHT22;10438;51.454;6.718;2022-12-18T08:21:36;-2.20;99.90
20560;DHT22;10438;51.454;6.718;2022-12-18T08:24:02;-2.20;99.90
20560;DHT22;10438;51.454;6.718;2022-12-18T08:26:30;-2.10;99.90
20560;DHT22;10438;51.454;6.718;2022-12-18T08:28:58;-2.00;99.90
20560;DHT22;10438;51.454;6.718;2022-12-18T08:31:26;-1.80;99.90
20560;DHT22;10438;51.454;6.718;2022-12-18T08:33:52;-1.70;99.90
20560;DHT22;10438;51.454;6.718;2022-12-18T08:36:18;-1.70;99.90
20560;DHT22;10438;51.454;6.718;2022-12-18T08:38:45;-1.60;99.90
20560;DHT22;10438;51.454;6.718;2022-12-18T08:41:13;-1.50;99.90
20560;DHT22;10438;51.454;6.718;2022-12-18T08:43:38;-1.50;99.90
20560;DHT22;10438;51.454;6.718;2022-12-18T08:46:24;-1.30;99.90
20560;DHT22;10438;51.454;6.718;2022-12-18T08:48:51;-1.30;99.90
20560;DHT22;10438;51.454;6.718;2022-12-18T08:51:16;-1.20;99.90
20560;DHT22;10438;51.454;6.718;2022-12-18T08:53:43;-1.20;99.90
20560;DHT22;10438;51.454;6.718;2022-12-18T08:56:10;-1.20;99.90
20560;DHT22;10438;51.454;6.718;2022-12-18T08:58:35;-1.10;99.90
20560;DHT22;10438;51.454;6.718;2022-12-18T09:01:02;-1.10;99.90
20560;DHT22;10438;51.454;6.718;2022-12-18T09:03:28;-1.00;99.90
20560;DHT22;10438;51.454;6.718;2022-12-18T09:05:54;-1.00;99.90
20560;DHT22;10438;51.454;6.718;2022-12-18T09:08:20;-0.90;99.90
20560;DHT22;10438;51.454;6.718;2022-12-18T09:10:47;-0.90;99.90
20560;DHT22;10438;51.454;6.718;2022-12-18T09:13:13;-0.90;99.90
20560;DHT22;10438;51.454;6.718;2022-12-18T09:15:51;-0.70;99.90
20560;DHT22;10438;51.454;6.718;2022-12-18T09:18:19;-0.70;99.90
20560;DHT22;10438;51.454;6.718;2022-12-18T09:20:45;-0.70;99.90
20560;DHT22;10438;51.454;6.718;2022-12-18T09:23:11;-0.60;99.90
20560;DHT22;10438;51.454;6.718;2022-12-18T09:25:37;-0.60;99.90
20560;DHT22;10438;51.454;6.718;2022-12-18T09:28:05;-0.50;99.90
20560;DHT22;10438;51.454;6.718;2022-12-18T09:30:31;-0.40;99.90
20560;DHT22;10438;51.454;6.718;2022-12-18T09:33:00;-0.40;99.90
20560;DHT22;10438;51.454;6.718;2022-12-18T09:35:26;-0.30;99.90
20560;DHT22;10438;51.454;6.718;2022-12-18T09:37:53;-0.20;99.90
20560;DHT22;10438;51.454;6.718;2022-12-18T09:40:22;-0.20;99.90
20560;DHT22;10438;51.454;6.718;2022-12-18T09:42:54;-0.10;99.90
20560;DHT22;10438;51.454;6.718;2022-12-18T09:45:21;0.00;99.90
20560;DHT22;10438;51.454;6.718;2022-12-18T09:47:49;0.00;99.90
20560;DHT22;10438;51.454;6.718;2022-12-18T09:50:27;0.10;99.90
20560;DHT22;10438;51.454;6.718;2022-12-18T09:52:57;0.10;99.90
20560;DHT22;10438;51.454;6.718;2022-12-18T09:55:41;0.20;99.90
20560;DHT22;10438;51.454;6.718;2022-12-18T10:00:38;0.40;99.90
20560;DHT22;10438;51.454;6.718;2022-12-18T10:03:10;0.50;99.90
20560;DHT22;10438;51.454;6.718;2022-12-18T10:05:59;0.60;99.90
20560;DHT22;10438;51.454;6.718;2022-12-18T10:09:16;0.60;99.90
20560;DHT22;10438;51.454;6.718;2022-12-18T10:11:29;0.80;99.90
20560;DHT22;10438;51.454;6.718;2022-12-18T10:14:04;0.90;99.90
20560;DHT22;10438;51.454;6.718;2022-12-18T10:27:43;1.20;99.70
20560;DHT22;10438;51.454;6.718;2022-12-18T10:30:15;1.20;99.90
20560;DHT22;10438;51.454;6.718;2022-12-18T10:32:41;1.30;99.80
20560;DHT22;10438;51.454;6.718;2022-12-18T10:35:24;1.30;99.50
20560;DHT22;10438;51.454;6.718;2022-12-18T10:38:23;1.40;98.80
20560;DHT22;10438;51.454;6.718;2022-12-18T10:41:00;1.50;99.00
20560;DHT22;10438;51.454;6.718;2022-12-18T10:43:31;1.60;97.50
20560;DHT22;10438;51.454;6.718;2022-12-18T10:51:06;1.70;94.20
20560;DHT22;10438;51.454;6.718;2022-12-18T10:53:34;1.80;94.30
20560;DHT22;10438;51.454;6.718;2022-12-18T10:56:00;1.80;90.80
20560;DHT22;10438;51.454;6.718;2022-12-18T10:58:38;1.90;93.00
20560;DHT22;10438;51.454;6.718;2022-12-18T11:01:17;1.90;92.50
20560;DHT22;10438;51.454;6.718;2022-12-18T11:04:08;1.80;90.90
20560;DHT22;10438;51.454;6.718;2022-12-18T11:06:33;1.80;91.20
20560;DHT22;10438;51.454;6.718;2022-12-18T11:09:17;1.80;91.90
20560;DHT22;10438;51.454;6.718;2022-12-18T11:11:52;1.80;92.30
20560;DHT22;10438;51.454;6.718;2022-12-18T11:14:48;1.90;92.80
20560;DHT22;10438;51.454;6.718;2022-12-18T11:17:35;1.90;94.10
20560;DHT22;10438;51.454;6.718;2022-12-18T11:20:03;2.00;92.70
20560;DHT22;10438;51.454;6.718;2022-12-18T11:22:34;2.10;91.50
20560;DHT22;10438;51.454;6.718;2022-12-18T11:27:28;2.10;91.40
20560;DHT22;10438;51.454;6.718;2022-12-18T11:30:21;2.10;91.60
20560;DHT22;10438;51.454;6.718;2022-12-18T11:32:49;2.20;91.30
20560;DHT22;10438;51.454;6.718;2022-12-18T11:35:20;2.30;89.00
20560;DHT22;10438;51.454;6.718;2022-12-18T11:37:53;2.30;88.00
20560;DHT22;10438;51.454;6.718;2022-12-18T11:40:30;2.30;90.70
20560;DHT22;10438;51.454;6.718;2022-12-18T11:43:14;2.20;90.10
20560;DHT22;10438;51.454;6.718;2022-12-18T11:45:48;2.20;87.80
20560;DHT22;10438;51.454;6.718;2022-12-18T11:48:22;2.20;88.90
20560;DHT22;10438;51.454;6.718;2022-12-18T11:50:58;2.20;89.70
20560;DHT22;10438;51.454;6.718;2022-12-18T11:53:27;2.20;90.90
20560;DHT22;10438;51.454;6.718;2022-12-18T12:06:30;2.10;92.20
20560;DHT22;10438;51.454;6.718;2022-12-18T12:09:37;2.10;92.30
20560;DHT22;10438;51.454;6.718;2022-12-18T12:15:06;2.20;87.40
20560;DHT22;10438;51.454;6.718;2022-12-18T12:23:00;2.20;85.80
20560;DHT22;10438;51.454;6.718;2022-12-18T12:25:49;2.20;87.70
20560;DHT22;10438;51.454;6.718;2022-12-18T12:31:44;2.10;91.00
20560;DHT22;10438;51.454;6.718;2022-12-18T12:34:23;2.10;90.20
20560;DHT22;10438;51.454;6.718;2022-12-18T12:37:13;2.10;92.10
20560;DHT22;10438;51.454;6.718;2022-12-18T12:39:44;2.00;92.50
20560;DHT22;10438;51.454;6.718;2022-12-18T12:42:33;2.00;93.10
20560;DHT22;10438;51.454;6.718;2022-12-18T12:45:25;2.00;92.30
20560;DHT22;10438;51.454;6.718;2022-12-18T12:47:54;2.00;92.20
20560;DHT22;10438;51.454;6.718;2022-12-18T12:50:21;2.00;93.00
20560;DHT22;10438;51.454;6.718;2022-12-18T12:52:53;2.00;91.90
20560;DHT22;10438;51.454;6.718;2022-12-18T12:55:25;1.90;93.10
20560;DHT22;10438;51.454;6.718;2022-12-18T13:00:37;1.90;90.80
20560;DHT22;10438;51.454;6.718;2022-12-18T13:03:13;1.90;90.10
20560;DHT22;10438;51.454;6.718;2022-12-18T13:05:56;1.90;90.40
20560;DHT22;10438;51.454;6.718;2022-12-18T13:08:31;1.90;87.70
20560;DHT22;10438;51.454;6.718;2022-12-18T13:11:00;1.90;91.10
20560;DHT22;10438;51.454;6.718;2022-12-18T13:13:52;1.90;90.20
20560;DHT22;10438;51.454;6.718;2022-12-18T13:16:20;1.80;91.80
20560;DHT22;10438;51.454;6.718;2022-12-18T13:18:56;1.90;92.90
20560;DHT22;10438;51.454;6.718;2022-12-18T13:21:28;1.90;92.80
20560;DHT22;10438;51.454;6.718;2022-12-18T13:23:54;1.90;91.20
20560;DHT22;10438;51.454;6.718;2022-12-18T13:28:56;1.90;91.50
20560;DHT22;10438;51.454;6.718;2022-12-18T13:36:34;1.80;90.60
20560;DHT22;10438;51.454;6.718;2022-12-18T13:41:46;1.80;93.20
20560;DHT22;10438;51.454;6.718;2022-12-18T13:44:24;1.80;93.20
20560;DHT22;10438;51.454;6.718;2022-12-18T13:46:51;1.80;93.40
20560;DHT22;10438;51.454;6.718;2022-12-18T13:51:49;1.70;92.40
20560;DHT22;10438;51.454;6.718;2022-12-18T13:54:35;1.70;91.70
20560;DHT22;10438;51.454;6.718;2022-12-18T13:57:03;1.60;91.60
20560;DHT22;10438;51.454;6.718;2022-12-18T13:59:39;1.60;92.00
20560;DHT22;10438;51.454;6.718;2022-12-18T14:02:21;1.70;91.00
20560;DHT22;10438;51.454;6.718;2022-12-18T14:04:48;1.60;91.00
20560;DHT22;10438;51.454;6.718;2022-12-18T14:07:26;1.60;93.10
20560;DHT22;10438;51.454;6.718;2022-12-18T14:09:58;1.60;91.50
20560;DHT22;10438;51.454;6.718;2022-12-18T14:12:32;1.60;92.30
20560;DHT22;10438;51.454;6.718;2022-12-18T14:18:19;1.60;93.20
20560;DHT22;10438;51.454;6.718;2022-12-18T14:20:47;1.60;92.40
20560;DHT22;10438;51.454;6.718;2022-12-18T14:23:32;1.50;93.00
20560;DHT22;10438;51.454;6.718;2022-12-18T14:25:58;1.50;93.40
20560;DHT22;10438;51.454;6.718;2022-12-18T14:28:24;1.50;93.10
20560;DHT22;10438;51.454;6.718;2022-12-18T14:30:51;1.50;92.80
20560;DHT22;10438;51.454;6.718;2022-12-18T14:33:38;1.50;93.00
20560;DHT22;10438;51.454;6.718;2022-12-18T14:36:05;1.50;94.10
20560;DHT22;10438;51.454;6.718;2022-12-18T14:38:41;1.50;93.60
20560;DHT22;10438;51.454;6.718;2022-12-18T14:41:10;1.50;92.80
20560;DHT22;10438;51.454;6.718;2022-12-18T14:43:37;1.40;91.60
20560;DHT22;10438;51.454;6.718;2022-12-18T14:46:05;1.40;92.20
20560;DHT22;10438;51.454;6.718;2022-12-18T14:48:38;1.40;91.60
20560;DHT22;10438;51.454;6.718;2022-12-18T14:51:15;1.40;91.50
20560;DHT22;10438;51.454;6.718;2022-12-18T14:53:44;1.40;93.40
20560;DHT22;10438;51.454;6.718;2022-12-18T14:56:22;1.40;92.40
20560;DHT22;10438;51.454;6.718;2022-12-18T14:58:50;1.40;93.30
20560;DHT22;10438;51.454;6.718;2022-12-18T15:03:51;1.40;94.40
20560;DHT22;10438;51.454;6.718;2022-12-18T15:06:27;1.40;94.80
20560;DHT22;10438;51.454;6.718;2022-12-18T15:08:54;1.30;93.70
20560;DHT22;10438;51.454;6.718;2022-12-18T15:14:38;1.30;94.90
20560;DHT22;10438;51.454;6.718;2022-12-18T15:17:24;1.30;95.00
20560;DHT22;10438;51.454;6.718;2022-12-18T15:19:52;1.30;94.80
20560;DHT22;10438;51.454;6.718;2022-12-18T15:22:21;1.30;95.30
20560;DHT22;10438;51.454;6.718;2022-12-18T15:24:47;1.20;95.70
20560;DHT22;10438;51.454;6.718;2022-12-18T15:27:24;1.20;96.60
20560;DHT22;10438;51.454;6.718;2022-12-18T15:32:30;1.20;96.70
20560;DHT22;10438;51.454;6.718;2022-12-18T15:35:29;1.20;97.00
20560;DHT22;10438;51.454;6.718;2022-12-18T15:37:54;1.10;95.70
20560;DHT22;10438;51.454;6.718;2022-12-18T15:40:22;1.10;95.90
20560;DHT22;10438;51.454;6.718;2022-12-18T15:42:49;1.10;96.60
20560;DHT22;10438;51.454;6.718;2022-12-18T15:45:34;1.10;97.00
20560;DHT22;10438;51.454;6.718;2022-12-18T15:48:23;1.10;97.00
20560;DHT22;10438;51.454;6.718;2022-12-18T15:50:53;1.10;98.10
20560;DHT22;10438;51.454;6.718;2022-12-18T15:53:25;1.10;98.40
20560;DHT22;10438;51.454;6.718;2022-12-18T15:55:52;1.10;98.20
20560;DHT22;10438;51.454;6.718;2022-12-18T15:58:36;1.00;99.00
20560;DHT22;10438;51.454;6.718;2022-12-18T16:01:02;1.00;99.40
20560;DHT22;10438;51.454;6.718;2022-12-18T16:03:28;1.00;99.20
20560;DHT22;10438;51.454;6.718;2022-12-18T16:05:53;1.00;99.90
20560;DHT22;10438;51.454;6.718;2022-12-18T16:08:20;1.00;99.90
20560;DHT22;10438;51.454;6.718;2022-12-18T16:10:45;1.00;99.90
20560;DHT22;10438;51.454;6.718;2022-12-18T16:13:13;0.90;99.90
20560;DHT22;10438;51.454;6.718;2022-12-18T16:15:41;0.90;99.90
20560;DHT22;10438;51.454;6.718;2022-12-18T16:18:06;0.90;99.90
20560;DHT22;10438;51.454;6.718;2022-12-18T16:20:32;0.90;99.90
20560;DHT22;10438;51.454;6.718;2022-12-18T16:22:57;0.90;99.90
20560;DHT22;10438;51.454;6.718;2022-12-18T16:25:26;0.80;99.90
20560;DHT22;10438;51.454;6.718;2022-12-18T16:27:52;0.80;99.90
20560;DHT22;10438;51.454;6.718;2022-12-18T16:30:22;0.80;99.90
20560;DHT22;10438;51.454;6.718;2022-12-18T16:32:48;0.80;99.90
20560;DHT22;10438;51.454;6.718;2022-12-18T16:35:15;0.80;99.90
20560;DHT22;10438;51.454;6.718;2022-12-18T16:37:42;0.80;99.90
20560;DHT22;10438;51.454;6.718;2022-12-18T16:40:10;0.80;99.90
20560;DHT22;10438;51.454;6.718;2022-12-18T16:42:37;0.70;99.90
20560;DHT22;10438;51.454;6.718;2022-12-18T16:45:04;0.70;99.90
20560;DHT22;10438;51.454;6.718;2022-12-18T16:47:30;0.70;99.90
20560;DHT22;10438;51.454;6.718;2022-12-18T16:49:55;0.70;99.90
20560;DHT22;10438;51.454;6.718;2022-12-18T16:52:21;0.70;99.90
20560;DHT22;10438;51.454;6.718;2022-12-18T16:54:46;0.70;99.90
20560;DHT22;10438;51.454;6.718;2022-12-18T16:57:14;0.70;99.90
20560;DHT22;10438;51.454;6.718;2022-12-18T16:59:40;0.60;99.90
20560;DHT22;10438;51.454;6.718;2022-12-18T17:02:14;0.60;99.90
20560;DHT22;10438;51.454;6.718;2022-12-18T17:04:42;0.60;99.90
20560;DHT22;10438;51.454;6.718;2022-12-18T17:07:08;0.60;99.90
20560;DHT22;10438;51.454;6.718;2022-12-18T17:09:34;0.60;99.90
20560;DHT22;10438;51.454;6.718;2022-12-18T17:12:00;0.60;99.90
20560;DHT22;10438;51.454;6.718;2022-12-18T17:14:25;0.60;99.90
20560;DHT22;10438;51.454;6.718;2022-12-18T17:16:52;0.60;99.90
20560;DHT22;10438;51.454;6.718;2022-12-18T17:19:18;0.60;99.90